createdAt,value
2018-12-17T04:29:23.781Z,3.80
2018-12-17T04:31:56.791Z,3.80
2018-12-17T04:34:28.988Z,3.80
2018-12-17T04:37:02.241Z,3.90
2018-12-17T04:39:35.054Z,3.80
2018-12-17T04:42:07.346Z,3.90
2018-12-17T04:44:39.511Z,4.00
2018-12-17T04:47:12.502Z,4.00
2018-12-17T04:49:45.496Z,4.00
2018-12-17T04:52:18.393Z,4.00
2018-12-17T04:54:50.473Z,4.00
2018-12-17T04:57:22.767Z,4.20
2018-12-17T04:59:54.959Z,4.40
2018-12-17T05:02:27.202Z,4.40
2018-12-17T05:05:00.195Z,4.40
2018-12-17T05:07:33.281Z,4.40
2018-12-17T05:10:06.557Z,4.50
2018-12-17T05:12:39.276Z,4.40
2018-12-17T05:15:12.412Z,4.30
2018-12-17T05:17:45.308Z,4.30
2018-12-17T05:20:18.313Z,4.30
2018-12-17T05:22:50.513Z,4.40
2018-12-17T05:25:23.544Z,4.40
2018-12-17T05:27:56.498Z,4.50
2018-12-17T05:30:29.372Z,4.50
2018-12-17T05:33:02.335Z,4.60
2018-12-17T05:35:35.248Z,4.70
2018-12-17T05:38:07.745Z,4.70
2018-12-17T05:40:39.978Z,4.50
2018-12-17T05:43:13.503Z,4.70
2018-12-17T05:45:46.049Z,4.60
2018-12-17T05:48:18.247Z,4.60
2018-12-17T05:50:50.530Z,4.50
2018-12-17T05:53:26.137Z,4.60
2018-12-17T05:55:58.823Z,4.70
2018-12-17T05:58:32.129Z,4.50
2018-12-17T06:01:04.959Z,4.50
2018-12-17T06:03:38.038Z,4.60
2018-12-17T06:06:11.007Z,4.50
2018-12-17T06:08:43.223Z,4.60
2018-12-17T06:11:15.495Z,4.60
2018-12-17T06:13:48.633Z,4.70
2018-12-17T06:16:21.664Z,4.60
2018-12-17T06:18:54.715Z,4.70
2018-12-17T06:21:27.596Z,4.70
2018-12-17T06:23:59.708Z,4.80
2018-12-17T06:26:31.836Z,4.70
2018-12-17T06:29:04.063Z,4.70
2018-12-17T06:31:36.222Z,4.80
2018-12-17T06:34:08.332Z,4.90
2018-12-17T06:36:41.360Z,5.00
2018-12-17T06:39:14.814Z,5.00
2018-12-17T06:41:47.660Z,5.00
2018-12-17T06:44:22.473Z,5.00
2018-12-17T06:46:55.012Z,4.80
2018-12-17T06:49:27.993Z,4.80
2018-12-17T06:52:00.227Z,4.80
2018-12-17T06:54:33.547Z,4.80
2018-12-17T06:57:06.362Z,4.90
2018-12-17T06:59:42.658Z,4.90
2018-12-17T07:02:14.834Z,4.90
2018-12-17T07:04:47.465Z,5.00
2018-12-17T07:07:19.636Z,5.00
2018-12-17T07:09:51.775Z,5.00
2018-12-17T07:12:28.511Z,5.00
2018-12-17T07:15:01.260Z,5.00
2018-12-17T07:17:34.275Z,4.90
2018-12-17T07:20:07.855Z,4.70
2018-12-17T07:22:40.328Z,4.80
2018-12-17T07:25:14.189Z,4.50
2018-12-17T07:27:46.703Z,4.50
2018-12-17T07:30:19.729Z,4.30
2018-12-17T07:32:52.507Z,4.30
2018-12-17T07:35:25.537Z,4.40
2018-12-17T07:37:58.655Z,4.50
2018-12-17T07:40:31.558Z,4.40
2018-12-17T07:43:04.698Z,4.60
2018-12-17T07:45:35.773Z,4.70
2018-12-17T07:48:08.790Z,4.90
2018-12-17T07:50:41.981Z,4.90
2018-12-17T07:53:14.878Z,4.90
2018-12-17T07:55:47.711Z,4.90
2018-12-17T07:58:22.347Z,4.90
2018-12-17T08:00:57.713Z,5.00
2018-12-17T08:03:29.854Z,4.90
2018-12-17T08:06:03.174Z,4.80
2018-12-17T08:08:36.181Z,4.90
2018-12-17T08:11:09.767Z,4.90
2018-12-17T08:13:42.812Z,4.80
2018-12-17T08:16:16.047Z,4.90
2018-12-17T08:18:49.937Z,5.00
2018-12-17T08:21:26.195Z,5.10
2018-12-17T08:23:59.725Z,5.10
2018-12-17T08:26:34.938Z,5.20
2018-12-17T08:29:08.532Z,5.10
2018-12-17T08:31:41.891Z,4.80
2018-12-17T08:34:14.759Z,5.10
2018-12-17T08:36:49.501Z,5.10
2018-12-17T08:39:23.760Z,5.00
2018-12-17T08:41:59.266Z,5.10
2018-12-17T08:44:35.561Z,5.20
2018-12-17T08:47:08.510Z,5.10
2018-12-17T08:49:43.342Z,5.20
2018-12-17T08:52:18.142Z,5.00
2018-12-17T08:54:50.725Z,5.10
2018-12-17T08:57:25.264Z,5.10
2018-12-17T08:59:59.494Z,5.10
2018-12-17T09:02:35.417Z,5.20
2018-12-17T09:05:12.590Z,5.20
2018-12-17T09:07:48.020Z,5.20
2018-12-17T09:10:22.280Z,5.30
2018-12-17T09:12:56.315Z,5.20
2018-12-17T09:15:29.875Z,5.10
2018-12-17T09:18:02.938Z,5.20
2018-12-17T09:20:36.150Z,5.20
2018-12-17T09:23:10.951Z,5.20
2018-12-17T09:25:44.027Z,5.20
2018-12-17T09:28:17.462Z,5.40
2018-12-17T09:30:51.554Z,5.30
2018-12-17T09:33:23.943Z,5.30
2018-12-17T09:35:55.153Z,5.20
2018-12-17T09:38:27.964Z,5.30
2018-12-17T09:41:00.980Z,5.40
2018-12-17T09:43:33.192Z,5.30
2018-12-17T09:46:05.416Z,5.30
2018-12-17T09:48:37.710Z,5.30
2018-12-17T09:51:10.776Z,5.20
2018-12-17T09:53:43.837Z,5.20
2018-12-17T09:56:16.700Z,5.20
2018-12-17T09:58:48.939Z,5.20
2018-12-17T10:01:21.413Z,5.30
2018-12-17T10:03:53.524Z,5.10
2018-12-17T10:06:26.560Z,5.20
2018-12-17T10:08:58.644Z,5.20
2018-12-17T10:11:30.954Z,5.30
2018-12-17T10:14:04.326Z,5.40
2018-12-17T10:16:37.224Z,5.40
2018-12-17T10:19:09.311Z,5.20
2018-12-17T10:21:41.443Z,5.40
2018-12-17T10:24:13.975Z,5.30
2018-12-17T10:26:47.817Z,5.30
2018-12-17T10:29:20.616Z,5.40
2018-12-17T10:31:52.876Z,5.40
2018-12-17T10:34:25.296Z,5.40
2018-12-17T10:36:59.836Z,5.40
2018-12-17T10:39:33.187Z,5.40
2018-12-17T10:42:06.704Z,5.40
2018-12-17T10:44:41.973Z,5.20
2018-12-17T10:47:15.006Z,5.30
2018-12-17T10:49:47.937Z,5.20
2018-12-17T10:52:20.707Z,5.20
2018-12-17T10:54:53.043Z,4.80
2018-12-17T10:57:27.020Z,4.90
2018-12-17T11:00:01.171Z,4.90
2018-12-17T11:02:35.836Z,5.00
2018-12-17T11:05:12.695Z,5.20
2018-12-17T11:07:45.452Z,5.20
2018-12-17T11:10:19.488Z,5.20
2018-12-17T11:12:52.314Z,4.90
2018-12-17T11:15:25.404Z,4.70
2018-12-17T11:17:59.672Z,4.60
2018-12-17T11:20:32.615Z,4.70
2018-12-17T11:23:06.298Z,4.90
2018-12-17T11:25:37.669Z,5.20
2018-12-17T11:28:10.058Z,5.40
2018-12-17T11:30:46.739Z,5.40
2018-12-17T11:33:19.440Z,5.60
2018-12-17T11:35:52.441Z,5.70
2018-12-17T11:38:25.477Z,5.50
2018-12-17T11:40:57.645Z,5.50
2018-12-17T11:43:29.998Z,5.50
2018-12-17T11:46:07.312Z,5.50
2018-12-17T11:48:40.280Z,5.50
2018-12-17T11:51:12.797Z,5.60
2018-12-17T11:53:45.772Z,5.50
2018-12-17T11:56:18.008Z,5.60
2018-12-17T11:58:51.040Z,5.70
2018-12-17T12:01:25.591Z,5.70
2018-12-17T12:03:57.759Z,5.70
2018-12-17T12:06:30.093Z,5.70
2018-12-17T12:09:03.820Z,5.60
2018-12-17T12:11:38.297Z,5.80
2018-12-17T12:14:10.547Z,5.60
2018-12-17T12:16:42.928Z,5.60
2018-12-17T12:19:15.803Z,5.70
2018-12-17T12:21:48.718Z,5.70
2018-12-17T12:24:21.054Z,5.70
2018-12-17T12:26:53.312Z,5.90
2018-12-17T12:29:25.624Z,5.80
2018-12-17T12:31:58.656Z,5.50
2018-12-17T12:34:38.045Z,5.70
2018-12-17T12:37:10.466Z,5.30
2018-12-17T12:39:43.419Z,5.30
2018-12-17T12:42:17.904Z,5.40
2018-12-17T12:44:50.815Z,5.70
2018-12-17T12:47:24.844Z,5.90
2018-12-17T12:49:57.866Z,5.80
2018-12-17T12:52:30.069Z,5.90
2018-12-17T12:55:03.218Z,5.90
2018-12-17T12:57:36.032Z,5.90
2018-12-17T13:00:11.556Z,6.00
2018-12-17T13:02:45.272Z,5.70
2018-12-17T13:05:17.551Z,5.70
2018-12-17T13:07:52.463Z,5.60
2018-12-17T13:10:24.784Z,5.70
2018-12-17T13:12:57.962Z,5.90
2018-12-17T13:15:30.839Z,5.90
2018-12-17T13:18:04.019Z,5.80
2018-12-17T13:20:37.308Z,5.80
2018-12-17T13:23:09.836Z,6.00
2018-12-17T13:25:46.077Z,6.10
2018-12-17T13:28:19.097Z,6.20
2018-12-17T13:30:51.260Z,6.20
2018-12-17T13:33:23.692Z,6.10
2018-12-17T13:35:56.404Z,6.30
2018-12-17T13:38:28.585Z,6.30
2018-12-17T13:41:00.639Z,6.30
2018-12-17T13:46:06.215Z,6.00
2018-12-17T13:48:38.597Z,6.00
2018-12-17T13:51:16.836Z,6.10
2018-12-17T13:53:49.679Z,6.20
2018-12-17T13:56:22.665Z,6.30
2018-12-17T13:58:55.657Z,6.30
2018-12-17T14:01:27.861Z,6.10
2018-12-17T14:04:00.875Z,6.30
2018-12-17T14:06:33.925Z,6.40
2018-12-17T14:09:07.741Z,6.30
2018-12-17T14:11:42.900Z,6.50
2018-12-17T14:14:15.899Z,6.50
2018-12-17T14:16:53.377Z,6.40
2018-12-17T14:19:25.921Z,6.40
2018-12-17T14:21:59.675Z,6.40
2018-12-17T14:24:32.356Z,6.30
2018-12-17T14:27:04.632Z,6.40
2018-12-17T14:29:36.739Z,6.20
2018-12-17T14:32:09.669Z,6.30
2018-12-17T14:34:42.646Z,6.40
2018-12-17T14:37:14.739Z,6.50
2018-12-17T14:39:53.357Z,6.60
2018-12-17T14:42:25.950Z,6.70
2018-12-17T14:44:58.052Z,6.70
2018-12-17T14:47:31.093Z,6.40
2018-12-17T14:50:04.628Z,6.40
2018-12-17T14:52:37.314Z,6.20
2018-12-17T14:55:09.503Z,6.00
2018-12-17T14:57:42.377Z,6.00
2018-12-17T15:00:14.924Z,5.70
2018-12-17T15:02:47.814Z,5.70
2018-12-17T15:05:19.954Z,5.60
2018-12-17T15:07:56.349Z,5.60
2018-12-17T15:10:29.059Z,5.60
2018-12-17T15:13:01.943Z,5.80
2018-12-17T15:15:34.255Z,5.90
2018-12-17T15:18:07.176Z,6.00
2018-12-17T15:20:40.096Z,6.10
2018-12-17T15:23:13.076Z,5.90
2018-12-17T15:25:46.131Z,5.80
2018-12-17T15:28:18.894Z,5.80
2018-12-17T15:30:52.208Z,5.80
2018-12-17T15:33:24.445Z,5.90
2018-12-17T15:35:56.563Z,5.80
2018-12-17T15:38:28.753Z,5.60
2018-12-17T15:41:00.944Z,5.60
2018-12-17T15:43:33.856Z,5.80
2018-12-17T15:48:39.948Z,5.90
2018-12-17T15:51:12.931Z,5.90
2018-12-17T15:53:47.552Z,6.00
2018-12-17T15:56:19.643Z,5.90
2018-12-17T15:58:51.776Z,5.70
2018-12-17T16:01:23.962Z,5.70
2018-12-17T16:03:56.321Z,5.90
2018-12-17T16:06:29.160Z,5.90
2018-12-17T16:09:01.260Z,6.20
2018-12-17T16:11:33.386Z,6.10
2018-12-17T16:14:05.628Z,5.90
2018-12-17T16:16:38.652Z,5.70
2018-12-17T16:19:10.732Z,5.80
2018-12-17T16:21:42.834Z,6.00
2018-12-17T16:24:15.178Z,6.00
2018-12-17T16:26:44.268Z,5.80
2018-12-17T16:29:16.820Z,6.00
2018-12-17T16:31:49.192Z,5.80
2018-12-17T16:34:18.246Z,5.90
2018-12-17T16:36:47.520Z,6.00
2018-12-17T16:39:16.708Z,5.80
2018-12-17T16:41:45.789Z,5.80
2018-12-17T16:44:14.921Z,5.90
2018-12-17T16:46:44.875Z,6.10
2018-12-17T16:49:19.659Z,6.10
2018-12-17T16:51:48.793Z,6.10
2018-12-17T16:54:17.873Z,6.00
2018-12-17T16:56:46.914Z,6.10
2018-12-17T16:59:16.002Z,6.00
2018-12-17T17:01:45.112Z,6.10
2018-12-17T17:04:14.182Z,6.10
2018-12-17T17:06:43.225Z,6.10
2018-12-17T17:09:12.296Z,6.00
2018-12-17T17:11:41.360Z,5.80
2018-12-17T17:14:10.434Z,5.60
2018-12-17T17:16:39.501Z,5.40
2018-12-17T17:19:08.559Z,5.30
2018-12-17T17:21:37.836Z,5.00
2018-12-17T17:24:06.909Z,4.90
2018-12-17T17:26:35.962Z,4.70
2018-12-17T17:29:05.039Z,4.90
2018-12-17T17:31:34.211Z,5.10
2018-12-17T17:34:03.270Z,5.10
2018-12-17T17:36:36.172Z,5.20
2018-12-17T17:39:09.247Z,5.10
2018-12-17T17:41:44.328Z,5.20
2018-12-17T17:44:15.160Z,5.20
2018-12-17T17:46:47.411Z,5.30
2018-12-17T17:49:19.528Z,5.40
2018-12-17T17:51:52.573Z,5.50
2018-12-17T17:54:27.388Z,5.30
2018-12-17T17:56:57.692Z,5.20
2018-12-17T17:59:32.454Z,5.00
2018-12-17T18:02:05.010Z,5.00
2018-12-17T18:04:37.227Z,5.10
2018-12-17T18:07:10.185Z,5.30
2018-12-17T18:09:43.308Z,5.40
2018-12-17T18:12:17.892Z,5.20
2018-12-17T18:17:41.176Z,4.90
2018-12-17T18:20:17.802Z,4.80
2018-12-17T18:22:55.915Z,4.80
2018-12-17T18:25:29.516Z,5.00
2018-12-17T18:28:03.663Z,5.10
2018-12-17T18:30:39.507Z,5.20
2018-12-17T18:33:12.598Z,5.10
2018-12-17T18:35:46.727Z,5.10
2018-12-17T18:38:17.425Z,4.90
2018-12-17T18:40:50.348Z,4.80
2018-12-17T18:43:23.472Z,4.80
2018-12-17T18:45:56.189Z,4.80
2018-12-17T18:48:31.536Z,4.80
2018-12-17T18:51:09.643Z,4.90
2018-12-17T18:53:41.977Z,5.00
2018-12-17T18:56:14.937Z,4.90
2018-12-17T18:58:45.188Z,4.60
2018-12-17T19:01:18.715Z,4.60
2018-12-17T19:03:49.961Z,4.40
2018-12-17T19:06:23.788Z,4.40
2018-12-17T19:08:58.111Z,4.50
2018-12-17T19:11:32.476Z,4.40
2018-12-17T19:14:05.293Z,4.40
2018-12-17T19:16:37.829Z,4.40
2018-12-17T19:19:11.503Z,4.50
2018-12-17T19:21:44.072Z,4.60
2018-12-17T19:24:16.388Z,4.60
2018-12-17T19:26:49.759Z,4.60
2018-12-17T19:29:20.476Z,4.20
2018-12-17T19:31:51.299Z,4.20
2018-12-17T19:34:22.789Z,4.20
2018-12-17T19:36:55.983Z,4.30
2018-12-17T19:39:31.518Z,4.40
2018-12-17T19:42:04.862Z,4.40
2018-12-17T19:44:38.018Z,4.50
2018-12-17T19:47:11.286Z,4.50
2018-12-17T19:49:46.525Z,4.50
2018-12-17T19:52:21.262Z,4.50
2018-12-17T19:54:54.010Z,4.60
2018-12-17T19:57:26.240Z,4.60
2018-12-17T19:59:59.228Z,4.60
2018-12-17T20:02:36.689Z,4.50
2018-12-17T20:05:11.939Z,4.40
2018-12-17T20:07:46.196Z,4.20
2018-12-17T20:10:27.638Z,3.90
2018-12-17T20:13:02.402Z,4.10
2018-12-17T20:15:42.185Z,4.00
2018-12-17T20:18:16.098Z,4.20
2018-12-17T20:20:57.390Z,4.20
2018-12-17T20:23:31.404Z,4.20
2018-12-17T20:26:10.365Z,4.10
2018-12-17T20:28:54.684Z,4.30
2018-12-17T20:31:30.039Z,4.30
2018-12-17T20:34:04.102Z,4.30
2018-12-17T20:36:37.977Z,4.30
2018-12-17T20:39:13.861Z,4.30
2018-12-17T20:41:47.670Z,4.30
2018-12-17T20:44:22.470Z,4.40
2018-12-17T20:47:02.568Z,4.50
2018-12-17T20:49:48.309Z,4.40
2018-12-17T20:52:20.859Z,4.50
2018-12-17T20:54:53.392Z,4.50
2018-12-17T20:57:27.343Z,4.60
2018-12-17T21:00:04.345Z,4.50
2018-12-17T21:02:46.424Z,4.40
2018-12-17T21:05:26.866Z,4.40
2018-12-17T21:08:05.384Z,4.40
2018-12-17T21:10:40.911Z,4.40
2018-12-17T21:13:21.960Z,4.30
2018-12-17T21:15:56.417Z,4.20
2018-12-17T21:18:37.976Z,4.20
2018-12-17T21:21:12.566Z,4.20
2018-12-17T21:23:51.572Z,4.20
2018-12-17T21:26:30.362Z,3.90
2018-12-17T21:29:07.981Z,3.90
2018-12-17T21:31:46.563Z,4.10
2018-12-17T21:34:25.994Z,4.20
2018-12-17T21:36:59.861Z,4.30
2018-12-17T21:39:32.653Z,4.30
2018-12-17T21:42:09.067Z,4.20
2018-12-17T21:44:42.731Z,4.20
2018-12-17T21:47:14.697Z,4.20
2018-12-17T21:49:47.922Z,4.30
2018-12-17T21:52:22.489Z,4.30
2018-12-17T21:54:55.295Z,4.20
2018-12-17T21:57:35.800Z,4.10
2018-12-17T22:00:10.590Z,4.00
2018-12-17T22:02:48.313Z,3.90
2018-12-17T22:05:21.264Z,3.50
2018-12-17T22:07:56.708Z,3.50
2018-12-17T22:10:36.457Z,3.80
2018-12-17T22:13:11.796Z,3.90
2018-12-17T22:15:47.788Z,3.90
2018-12-17T22:18:22.595Z,4.00
2018-12-17T22:20:55.386Z,3.90
